Retreat, Georgia
Current Conditions -  °F | °C
As of 5:18 AM on Wednesday 26 Nov 2014 (Local Time) from KLHW Reporting Station
Light Rain Light Rain  
Wind Chill: 43°   Ceiling: 700
Heat Index: 48°   Visibility: 10mi
Dew Point: 46°   Wind: 13mph
Humidity: 93%   Direction: 300°WNW
Pressure: 29.93"   Gusts: NA
Location:  31.7217°N, 81.4475°W
Report Text: KLHW 261018Z AUTO 30011KT 10SM -RA OVC007 09/08 A2993 RMK AO2
Loading
Personal Weather Stations






























Interactive Weather Map New forecast layout! Learn more

10-Day Weather Forecast

Advertisements
Track Severe Weather on mobile